createdAt,value
2023-03-02T00:01:41.277Z,5.47
2023-03-02T00:06:44.392Z,6.23
2023-03-02T00:11:48.785Z,6.80
2023-03-02T00:16:51.633Z,6.60
2023-03-02T00:21:54.388Z,6.10
2023-03-02T00:26:59.112Z,5.53
2023-03-02T00:32:03.751Z,7.57
2023-03-02T00:37:06.514Z,6.87
2023-03-02T00:42:10.588Z,8.67
2023-03-02T00:47:13.597Z,7.17
2023-03-02T00:52:17.207Z,6.10
2023-03-02T00:57:21.344Z,6.77
2023-03-02T01:02:24.427Z,7.63
2023-03-02T01:07:28.453Z,9.40
2023-03-02T01:12:33.419Z,9.37
2023-03-02T01:17:36.153Z,6.90
2023-03-02T01:22:38.858Z,8.63
2023-03-02T01:27:42.935Z,9.40
2023-03-02T01:32:45.756Z,6.40
2023-03-02T01:37:49.243Z,5.30
2023-03-02T01:42:58.239Z,9.63
2023-03-02T01:48:01.045Z,11.50
2023-03-02T01:53:04.821Z,12.63
2023-03-02T01:58:09.887Z,14.70
2023-03-02T02:03:16.215Z,13.97
2023-03-02T02:08:19.412Z,7.57
2023-03-02T02:13:23.645Z,8.93
2023-03-02T02:18:26.708Z,10.13
2023-03-02T02:23:34.994Z,10.57
2023-03-02T02:28:43.366Z,6.03
2023-03-02T02:33:51.820Z,8.80
2023-03-02T02:38:56.927Z,7.17
2023-03-02T02:44:01.448Z,10.60
2023-03-02T02:49:04.802Z,8.43
2023-03-02T02:54:07.564Z,7.33
2023-03-02T02:59:17.531Z,8.07
2023-03-02T03:04:22.486Z,11.47
2023-03-02T03:09:26.318Z,8.57
2023-03-02T03:14:32.321Z,9.17
2023-03-02T03:19:35.097Z,7.13
2023-03-02T03:24:38.107Z,8.33
2023-03-02T03:29:44.998Z,8.90
2023-03-02T03:34:50.002Z,11.03
2023-03-02T03:39:59.061Z,6.70
2023-03-02T03:45:03.669Z,7.03
2023-03-02T03:50:10.579Z,12.80
2023-03-02T03:55:14.253Z,15.30
2023-03-02T04:00:21.509Z,10.93
2023-03-02T04:05:39.665Z,11.27
2023-03-02T04:10:42.663Z,8.97
2023-03-02T04:15:47.703Z,11.30
2023-03-02T04:20:51.174Z,11.20
2023-03-02T04:25:54.010Z,12.20
2023-03-02T04:30:59.786Z,8.40
2023-03-02T04:36:03.165Z,8.20
2023-03-02T04:41:07.129Z,12.80
2023-03-02T04:46:16.049Z,9.80
2023-03-02T04:51:23.945Z,11.40
2023-03-02T04:56:27.164Z,11.37
2023-03-02T05:01:31.326Z,13.20
2023-03-02T05:06:34.653Z,13.63
2023-03-02T05:11:37.957Z,12.70
2023-03-02T05:16:43.004Z,11.10
2023-03-02T05:21:46.096Z,14.33
2023-03-02T05:26:48.934Z,13.97
2023-03-02T05:31:53.179Z,8.57
2023-03-02T05:36:57.072Z,12.80
2023-03-02T05:41:59.791Z,14.17
2023-03-02T05:47:03.895Z,14.73
2023-03-02T05:52:06.861Z,13.53
2023-03-02T05:57:09.555Z,12.17
2023-03-02T06:02:13.755Z,11.90
2023-03-02T06:07:16.503Z,11.70
2023-03-02T06:12:19.522Z,11.47
2023-03-02T06:17:23.604Z,12.83
2023-03-02T06:22:26.824Z,14.37
2023-03-02T06:27:29.549Z,11.43
2023-03-02T06:32:34.328Z,14.70
2023-03-02T06:37:37.284Z,12.50
2023-03-02T06:42:41.469Z,10.97
2023-03-02T06:47:45.550Z,15.13
2023-03-02T06:52:48.310Z,11.67
2023-03-02T06:57:51.231Z,13.70
2023-03-02T07:02:56.160Z,16.63
2023-03-02T07:07:59.031Z,10.23
2023-03-02T07:13:01.859Z,10.50
2023-03-02T07:18:05.995Z,15.17
2023-03-02T07:23:08.784Z,13.60
2023-03-02T07:28:11.760Z,11.43
2023-03-02T07:33:16.102Z,15.47
2023-03-02T07:38:18.890Z,14.80
2023-03-02T07:43:23.951Z,17.33
2023-03-02T07:48:28.175Z,10.97
2023-03-02T07:53:31.079Z,16.10
2023-03-02T07:58:35.302Z,18.27
2023-03-02T08:03:39.596Z,16.47
2023-03-02T08:08:42.381Z,17.10
2023-03-02T08:13:45.750Z,16.03
2023-03-02T08:18:49.834Z,13.47
2023-03-02T08:23:53.043Z,18.17
2023-03-02T08:28:55.848Z,15.83
2023-03-02T08:34:00.535Z,13.87
2023-03-02T08:39:03.402Z,15.77
2023-03-02T08:44:06.388Z,18.80
2023-03-02T08:49:10.727Z,22.50
2023-03-02T08:54:13.988Z,16.53
2023-03-02T08:59:17.354Z,17.00
2023-03-02T09:04:21.526Z,12.93
2023-03-02T09:09:24.393Z,16.20
2023-03-02T09:14:27.283Z,11.60
2023-03-02T09:19:31.503Z,16.30
2023-03-02T09:24:34.389Z,13.67
2023-03-02T09:29:37.137Z,14.93
2023-03-02T09:34:41.354Z,13.37
2023-03-02T09:39:44.226Z,15.07
2023-03-02T09:45:02.189Z,11.10
2023-03-02T09:50:22.995Z,11.27
2023-03-02T09:55:29.200Z,11.37
2023-03-02T10:00:35.233Z,12.40
2023-03-02T10:05:40.776Z,15.83
2023-03-02T10:10:46.403Z,12.77
2023-03-02T10:15:57.704Z,13.50
2023-03-02T10:21:05.995Z,13.67
2023-03-02T10:26:16.994Z,11.50
2023-03-02T10:31:26.021Z,10.33
2023-03-02T10:36:31.252Z,10.40
2023-03-02T10:41:40.901Z,10.13
2023-03-02T10:46:45.438Z,6.87
2023-03-02T10:51:56.766Z,10.33
2023-03-02T10:57:01.382Z,9.97
2023-03-02T11:02:05.585Z,10.10
2023-03-02T11:07:12.909Z,9.27
2023-03-02T11:12:17.351Z,7.50
2023-03-02T11:17:31.672Z,10.63
2023-03-02T11:22:39.883Z,5.47
2023-03-02T11:27:44.279Z,9.57
2023-03-02T11:32:52.630Z,8.53
2023-03-02T11:37:58.917Z,9.73
2023-03-02T11:43:04.764Z,8.00
2023-03-02T11:48:10.833Z,8.18
2023-03-02T11:53:15.753Z,8.38
2023-03-02T11:58:20.207Z,10.82
2023-03-02T12:03:36.951Z,9.73
2023-03-02T12:08:42.313Z,8.77
2023-03-02T12:13:46.178Z,7.15
2023-03-02T12:18:49.262Z,6.97
2023-03-02T12:23:59.399Z,9.02
2023-03-02T12:29:05.584Z,9.15
2023-03-02T12:34:26.970Z,5.57
2023-03-02T12:39:41.993Z,7.15
2023-03-02T12:44:52.408Z,6.70
2023-03-02T12:49:57.923Z,7.90
2023-03-02T12:55:05.038Z,8.20
2023-03-02T13:00:17.827Z,7.72
2023-03-02T13:05:22.500Z,7.10
2023-03-02T13:10:30.779Z,8.13
2023-03-02T13:15:33.737Z,7.03
2023-03-02T13:20:36.563Z,6.22
2023-03-02T13:25:49.176Z,5.28
2023-03-02T13:30:57.802Z,8.15
2023-03-02T13:36:00.747Z,6.25
2023-03-02T13:41:05.523Z,5.43
2023-03-02T13:46:26.957Z,8.55
2023-03-02T13:51:32.274Z,7.25
2023-03-02T13:56:38.314Z,9.20
2023-03-02T14:01:42.041Z,7.28
2023-03-02T14:06:45.153Z,8.00
2023-03-02T14:11:53.066Z,8.02
2023-03-02T14:16:55.927Z,9.32
2023-03-02T14:21:58.654Z,8.27
2023-03-02T14:27:02.772Z,7.57
2023-03-02T14:32:06.674Z,10.75
2023-03-02T14:37:12.596Z,10.02
2023-03-02T14:42:18.348Z,8.27
2023-03-02T14:47:21.803Z,8.32
2023-03-02T14:52:29.050Z,9.45
2023-03-02T14:57:37.057Z,8.95
2023-03-02T15:02:39.970Z,7.55
2023-03-02T15:07:42.977Z,5.53
2023-03-02T15:12:47.305Z,8.00
2023-03-02T15:17:50.015Z,8.18
2023-03-02T15:22:53.521Z,8.63
2023-03-02T15:27:58.276Z,6.90
2023-03-02T15:33:01.005Z,9.48
2023-03-02T15:38:04.557Z,7.28
2023-03-02T15:43:08.808Z,9.73
2023-03-02T15:48:13.515Z,8.00
2023-03-02T15:55:46.401Z,8.25
2023-03-02T16:00:49.474Z,7.70
2023-03-02T16:05:52.374Z,7.40
2023-03-02T16:11:00.930Z,7.95
2023-03-02T16:16:05.038Z,6.35
2023-03-02T16:21:13.027Z,6.28
2023-03-02T16:26:19.338Z,7.70
2023-03-02T16:31:23.500Z,7.85
2023-03-02T16:36:26.725Z,9.80
2023-03-02T16:41:30.829Z,10.10
2023-03-02T16:46:36.746Z,9.05
2023-03-02T16:51:40.131Z,9.15
2023-03-02T16:56:47.165Z,8.20
2023-03-02T17:01:50.006Z,8.25
2023-03-02T17:07:01.151Z,12.20
2023-03-02T17:12:05.918Z,12.35
2023-03-02T17:17:08.782Z,12.45
2023-03-02T17:22:11.543Z,15.65
2023-03-02T17:27:24.601Z,11.32
2023-03-02T17:32:28.609Z,11.95
2023-03-02T17:37:31.327Z,13.43
2023-03-02T17:42:35.484Z,17.20
2023-03-02T17:47:38.259Z,15.82
2023-03-02T17:52:41.026Z,12.73
2023-03-02T17:57:45.190Z,11.30
2023-03-02T18:02:47.940Z,9.35
2023-03-02T18:07:52.426Z,11.20
2023-03-02T18:12:56.773Z,12.75
2023-03-02T18:17:59.531Z,11.52
2023-03-02T18:23:02.740Z,14.82
2023-03-02T18:28:06.947Z,16.60
2023-03-02T18:33:09.744Z,19.70
2023-03-02T18:38:12.481Z,22.38
2023-03-02T18:43:16.641Z,18.17
2023-03-02T18:48:19.795Z,23.65
2023-03-02T18:53:22.630Z,22.67
2023-03-02T18:58:26.912Z,23.35
2023-03-02T19:03:31.123Z,22.70
2023-03-02T19:08:35.346Z,22.73
2023-03-02T19:13:39.661Z,23.15
2023-03-02T19:18:42.697Z,19.77
2023-03-02T19:23:46.543Z,24.10
2023-03-02T19:28:50.929Z,24.27
2023-03-02T19:33:53.691Z,21.10
2023-03-02T19:38:56.381Z,26.97
2023-03-02T19:44:00.556Z,27.17
2023-03-02T19:49:03.301Z,26.13
2023-03-02T19:54:06.108Z,23.53
2023-03-02T19:59:11.103Z,20.73
2023-03-02T20:04:13.760Z,23.53
2023-03-02T20:09:19.692Z,20.67
2023-03-02T20:14:33.328Z,20.67
2023-03-02T20:19:37.367Z,20.47
2023-03-02T20:24:40.649Z,18.00
2023-03-02T20:29:45.532Z,23.73
2023-03-02T20:34:49.375Z,21.00
2023-03-02T20:39:53.233Z,20.80
2023-03-02T20:44:59.383Z,20.77
2023-03-02T20:50:02.684Z,18.83
2023-03-02T20:55:09.598Z,16.33
2023-03-02T21:00:20.587Z,19.53
2023-03-02T21:05:23.732Z,22.17
2023-03-02T21:10:30.088Z,18.23
2023-03-02T21:15:34.628Z,17.90
2023-03-02T21:20:37.552Z,21.97
2023-03-02T21:25:42.293Z,19.00
2023-03-02T21:30:47.016Z,19.17
2023-03-02T21:35:49.796Z,18.50
2023-03-02T21:40:52.741Z,20.00
2023-03-02T21:45:56.828Z,21.00
2023-03-02T21:50:59.924Z,21.07
2023-03-02T21:56:02.648Z,21.67
2023-03-02T22:01:06.774Z,19.37
2023-03-02T22:06:10.706Z,22.37
2023-03-02T22:11:18.249Z,21.37
2023-03-02T22:16:23.906Z,24.33
2023-03-02T22:21:31.952Z,19.37
2023-03-02T22:26:42.344Z,21.57
2023-03-02T22:31:48.983Z,27.70
2023-03-02T22:36:52.109Z,19.40
2023-03-02T22:42:00.278Z,22.37
2023-03-02T22:47:07.491Z,21.33
2023-03-02T22:52:13.881Z,18.47
2023-03-02T22:57:28.981Z,23.43
2023-03-02T23:02:43.716Z,23.80
2023-03-02T23:07:46.392Z,22.00
2023-03-02T23:12:49.152Z,22.47
2023-03-02T23:17:53.212Z,21.63
2023-03-02T23:22:57.929Z,19.20
2023-03-02T23:28:00.650Z,23.97
2023-03-02T23:33:04.937Z,17.87
2023-03-02T23:38:07.675Z,16.67
2023-03-02T23:43:10.535Z,19.87
2023-03-02T23:48:14.631Z,19.93
2023-03-02T23:53:17.518Z,19.57
2023-03-02T23:58:20.446Z,19.90
